sensor_id;sensor_type;location;lat;lon;timestamp;P1;P4;P2;P0;N10;N4;N25;N1;N05;TS
71804;SPS30;59654;52.216;5.616;2023-02-01T00:00:20;10.62;9.43;7.09;4.04;32.49;32.39;31.83;28.85;20.44;0.89
71804;SPS30;59654;52.216;5.616;2023-02-01T00:00:51;8.84;7.86;5.93;3.41;27.46;27.37;26.91;24.45;17.43;0.87
71804;SPS30;59654;52.216;5.616;2023-02-01T00:01:22;9.13;8.13;6.15;3.57;28.73;28.64;28.17;25.66;18.39;0.86
71804;SPS30;59654;52.216;5.616;2023-02-01T00:01:52;9.97;8.88;6.75;3.95;31.75;31.65;31.14;28.42;20.46;0.86
71804;SPS30;59654;52.216;5.616;2023-02-01T00:02:23;8.72;7.77;5.91;3.47;27.94;27.85;27.41;25.03;18.07;0.87
71804;SPS30;59654;52.216;5.616;2023-02-01T00:02:54;8.82;7.86;5.97;3.50;28.14;28.05;27.60;25.19;18.15;0.88
71804;SPS30;59654;52.216;5.616;2023-02-01T00:03:25;10.28;9.12;6.87;3.92;31.58;31.48;30.94;28.06;19.92;0.89
71804;SPS30;59654;52.216;5.616;2023-02-01T00:03:56;9.42;8.36;6.27;3.56;28.61;28.52;28.02;25.37;17.92;0.90
71804;SPS30;59654;52.216;5.616;2023-02-01T00:04:27;8.45;7.49;5.63;3.20;25.75;25.66;25.22;22.84;16.16;0.90
71804;SPS30;59654;52.216;5.616;2023-02-01T00:04:58;9.88;8.76;6.57;3.71;29.88;29.78;29.26;26.46;18.66;0.90
71804;SPS30;59654;52.216;5.616;2023-02-01T00:05:29;9.45;8.37;6.27;3.52;28.37;28.27;27.77;25.09;17.63;0.91
71804;SPS30;59654;52.216;5.616;2023-02-01T00:06:00;9.14;8.07;5.97;3.25;26.20;26.11;25.61;22.94;15.79;0.93
71804;SPS30;59654;52.216;5.616;2023-02-01T00:06:32;8.82;7.79;5.78;3.17;25.56;25.47;24.99;22.44;15.53;0.91
71804;SPS30;59654;52.216;5.616;2023-02-01T00:07:03;9.18;8.11;6.02;3.32;26.70;26.60;26.11;23.45;16.26;0.91
71804;SPS30;59654;52.216;5.616;2023-02-01T00:07:34;10.47;9.24;6.85;3.75;30.17;30.06;29.49;26.44;18.25;0.92
71804;SPS30;59654;52.216;5.616;2023-02-01T00:08:06;9.64;8.53;6.35;3.52;28.33;28.23;27.71;24.93;17.36;0.91
71804;SPS30;59654;52.216;5.616;2023-02-01T00:08:39;9.15;8.10;6.03;3.35;26.95;26.86;26.37;23.74;16.54;0.91
71804;SPS30;59654;52.216;5.616;2023-02-01T00:09:10;9.45;8.36;6.25;3.49;28.13;28.04;27.53;24.84;17.40;0.90
71804;SPS30;59654;52.216;5.616;2023-02-01T00:09:40;10.05;8.92;6.71;3.82;30.74;30.64;30.11;27.29;19.33;0.86
71804;SPS30;59654;52.216;5.616;2023-02-01T00:10:11;9.92;8.82;6.69;3.89;31.30;31.20;30.69;27.96;20.07;0.86
71804;SPS30;59654;52.216;5.616;2023-02-01T00:10:42;9.67;8.61;6.54;3.82;30.74;30.65;30.15;27.50;19.79;0.86
71804;SPS30;59654;52.216;5.616;2023-02-01T00:11:13;8.15;7.26;5.52;3.24;26.04;25.96;25.55;23.33;16.82;0.87
71804;SPS30;59654;52.216;5.616;2023-02-01T00:11:44;8.92;7.93;6.00;3.48;28.00;27.92;27.46;25.00;17.90;0.86
71804;SPS30;59654;52.216;5.616;2023-02-01T00:12:14;8.63;7.68;5.82;3.38;27.17;27.09;26.65;24.27;17.40;0.86
71804;SPS30;59654;52.216;5.616;2023-02-01T00:12:45;8.44;7.51;5.69;3.30;26.55;26.47;26.03;23.71;16.99;0.87
71804;SPS30;59654;52.216;5.616;2023-02-01T00:13:16;9.98;8.85;6.65;3.78;30.44;30.34;29.81;27.01;19.11;0.88
71804;SPS30;59654;52.216;5.616;2023-02-01T00:13:47;9.38;8.34;6.29;3.62;29.11;29.01;28.53;25.92;18.47;0.86
71804;SPS30;59654;52.216;5.616;2023-02-01T00:14:19;8.65;7.70;5.85;3.42;27.52;27.43;26.99;24.63;17.73;0.85
71804;SPS30;59654;52.216;5.616;2023-02-01T00:14:49;8.63;7.69;5.84;3.42;27.49;27.41;26.97;24.61;17.72;0.85
71804;SPS30;59654;52.216;5.616;2023-02-01T00:15:20;8.41;7.50;5.72;3.38;27.14;27.06;26.63;24.36;17.62;0.84
71804;SPS30;59654;52.216;5.616;2023-02-01T00:15:51;9.60;8.53;6.45;3.73;30.04;29.94;29.45;26.79;19.16;0.87
71804;SPS30;59654;52.216;5.616;2023-02-01T00:16:23;9.50;8.44;6.37;3.66;29.43;29.34;28.84;26.20;18.66;0.87
71804;SPS30;59654;52.216;5.616;2023-02-01T00:16:57;9.72;8.63;6.52;3.75;30.18;30.09;29.58;26.88;19.17;0.86
71804;SPS30;59654;52.216;5.616;2023-02-01T00:17:28;8.10;7.22;5.50;3.24;26.08;26.00;25.59;23.39;16.92;0.85
71804;SPS30;59654;52.216;5.616;2023-02-01T00:17:59;8.31;7.42;5.67;3.37;27.09;27.01;26.59;24.35;17.69;0.86
71804;SPS30;59654;52.216;5.616;2023-02-01T00:18:30;8.54;7.62;5.82;3.45;27.72;27.63;27.20;24.90;18.06;0.86
71804;SPS30;59654;52.216;5.616;2023-02-01T00:19:06;9.04;8.04;6.09;3.53;28.39;28.30;27.84;25.34;18.15;0.88
71804;SPS30;59654;52.216;5.616;2023-02-01T00:19:41;9.33;8.29;6.26;3.60;28.95;28.85;28.37;25.77;18.37;0.88
71804;SPS30;59654;52.216;5.616;2023-02-01T00:20:12;8.99;8.01;6.10;3.60;28.95;28.86;28.41;25.97;18.78;0.85
71804;SPS30;59654;52.216;5.616;2023-02-01T00:20:46;8.21;7.35;5.68;3.46;27.80;27.72;27.32;25.17;18.54;0.83
71804;SPS30;59654;52.216;5.616;2023-02-01T00:21:18;7.96;7.13;5.52;3.38;27.14;27.07;26.68;24.61;18.17;0.85
71804;SPS30;59654;52.216;5.616;2023-02-01T00:21:50;8.72;7.77;5.92;3.49;28.03;27.94;27.50;25.13;18.16;0.87
71804;SPS30;59654;52.216;5.616;2023-02-01T00:22:21;8.82;7.85;5.96;3.48;27.98;27.89;27.44;25.03;18.00;0.87
71804;SPS30;59654;52.216;5.616;2023-02-01T00:22:52;8.46;7.54;5.73;3.36;27.01;26.93;26.50;24.19;17.44;0.86
71804;SPS30;59654;52.216;5.616;2023-02-01T00:23:22;8.59;7.65;5.80;3.38;27.20;27.12;26.68;24.32;17.47;0.87
71804;SPS30;59654;52.216;5.616;2023-02-01T00:23:53;8.53;7.58;5.74;3.32;26.72;26.63;26.20;23.84;17.06;0.87
71804;SPS30;59654;52.216;5.616;2023-02-01T00:24:24;8.85;7.88;5.99;3.51;28.26;28.18;27.73;25.31;18.25;0.86
71804;SPS30;59654;52.216;5.616;2023-02-01T00:24:55;8.67;7.72;5.87;3.43;27.62;27.53;27.09;24.72;17.80;0.87
71804;SPS30;59654;52.216;5.616;2023-02-01T00:25:26;8.85;7.86;5.95;3.44;27.64;27.56;27.10;24.65;17.62;0.88
71804;SPS30;59654;52.216;5.616;2023-02-01T00:25:59;8.54;7.58;5.71;3.28;26.37;26.28;25.84;23.46;16.69;0.88
71804;SPS30;59654;52.216;5.616;2023-02-01T00:26:35;9.81;8.70;6.54;3.71;29.89;29.79;29.28;26.52;18.77;0.88
71804;SPS30;59654;52.216;5.616;2023-02-01T00:27:09;8.74;7.75;5.82;3.31;26.61;26.52;26.07;23.60;16.69;0.89
71804;SPS30;59654;52.216;5.616;2023-02-01T00:27:40;10.02;8.87;6.63;3.72;29.93;29.82;29.29;26.44;18.55;0.89
71804;SPS30;59654;52.216;5.616;2023-02-01T00:28:11;10.04;8.90;6.67;3.76;30.27;30.17;29.64;26.79;18.87;0.90
71804;SPS30;59654;52.216;5.616;2023-02-01T00:28:43;9.67;8.58;6.45;3.67;29.54;29.45;28.94;26.22;18.57;0.88
71804;SPS30;59654;52.216;5.616;2023-02-01T00:29:15;9.89;8.78;6.61;3.78;30.39;30.29;29.78;27.01;19.18;0.89
71804;SPS30;59654;52.216;5.616;2023-02-01T00:29:48;8.66;7.71;5.86;3.43;27.61;27.53;27.09;24.73;17.82;0.87
71804;SPS30;59654;52.216;5.616;2023-02-01T00:30:19;8.40;7.47;5.65;3.26;26.25;26.17;25.73;23.41;16.73;0.88
71804;SPS30;59654;52.216;5.616;2023-02-01T00:30:56;9.51;8.46;6.40;3.71;29.81;29.71;29.22;26.59;19.03;0.88
71804;SPS30;59654;52.216;5.616;2023-02-01T00:31:28;8.41;7.47;5.63;3.23;26.02;25.93;25.50;23.15;16.48;0.88
71804;SPS30;59654;52.216;5.616;2023-02-01T00:31:59;8.47;7.52;5.66;3.24;26.04;25.95;25.51;23.14;16.43;0.89
71804;SPS30;59654;52.216;5.616;2023-02-01T00:32:30;9.83;8.71;6.51;3.65;29.37;29.27;28.75;25.95;18.20;0.90
71804;SPS30;59654;52.216;5.616;2023-02-01T00:33:02;10.03;8.88;6.62;3.69;29.70;29.60;29.06;26.19;18.30;0.88
71804;SPS30;59654;52.216;5.616;2023-02-01T00:33:33;9.93;8.79;6.57;3.67;29.55;29.45;28.92;26.08;18.26;0.89
71804;SPS30;59654;52.216;5.616;2023-02-01T00:34:04;10.17;8.97;6.64;3.61;29.10;28.99;28.44;25.47;17.52;0.91
71804;SPS30;59654;52.216;5.616;2023-02-01T00:34:35;9.41;8.31;6.16;3.36;27.10;27.00;26.49;23.75;16.38;0.90
71804;SPS30;59654;52.216;5.616;2023-02-01T00:35:07;9.17;8.12;6.07;3.40;27.38;27.29;26.80;24.19;16.97;0.88
71804;SPS30;59654;52.216;5.616;2023-02-01T00:35:38;10.34;9.19;6.92;3.97;31.96;31.85;31.31;28.43;20.23;0.87
71804;SPS30;59654;52.216;5.616;2023-02-01T00:36:09;10.07;8.95;6.76;3.91;31.42;31.32;30.80;28.01;20.02;0.87
71804;SPS30;59654;52.216;5.616;2023-02-01T00:36:40;9.08;8.08;6.12;3.55;28.56;28.47;28.00;25.50;18.27;0.87
71804;SPS30;59654;52.216;5.616;2023-02-01T00:37:13;9.43;8.43;6.45;3.86;31.00;30.91;30.44;27.92;20.34;0.86
71804;SPS30;59654;52.216;5.616;2023-02-01T00:37:44;8.76;7.85;6.09;3.74;30.03;29.95;29.53;27.26;20.16;0.83
71804;SPS30;59654;52.216;5.616;2023-02-01T00:38:15;8.75;7.87;6.16;3.87;31.08;31.00;30.59;28.39;21.24;0.81
71804;SPS30;59654;52.216;5.616;2023-02-01T00:38:45;7.81;7.04;5.53;3.50;28.12;28.05;27.68;25.74;19.34;0.80
71804;SPS30;59654;52.216;5.616;2023-02-01T00:39:16;8.57;7.70;6.01;3.74;30.07;29.99;29.59;27.41;20.43;0.81
71804;SPS30;59654;52.216;5.616;2023-02-01T00:39:47;8.68;7.75;5.94;3.56;28.58;28.50;28.07;25.75;18.78;0.84
71804;SPS30;59654;52.216;5.616;2023-02-01T00:40:18;8.64;7.69;5.83;3.40;27.31;27.22;26.78;24.41;17.52;0.86
71804;SPS30;59654;52.216;5.616;2023-02-01T00:40:49;8.30;7.39;5.60;3.26;26.23;26.15;25.72;23.44;16.82;0.85
71804;SPS30;59654;52.216;5.616;2023-02-01T00:41:20;8.04;7.14;5.39;3.09;24.89;24.81;24.39;22.16;15.78;0.87
71804;SPS30;59654;52.216;5.616;2023-02-01T00:41:52;9.99;8.85;6.62;3.71;29.88;29.78;29.25;26.40;18.52;0.89
71804;SPS30;59654;52.216;5.616;2023-02-01T00:42:23;9.24;8.17;6.07;3.35;26.95;26.86;26.36;23.69;16.44;0.89
71804;SPS30;59654;52.216;5.616;2023-02-01T00:42:53;9.77;8.64;6.42;3.55;28.56;28.46;27.93;25.11;17.44;0.88
71804;SPS30;59654;52.216;5.616;2023-02-01T00:43:24;9.50;8.39;6.23;3.42;27.54;27.44;26.93;24.17;16.73;0.89
71804;SPS30;59654;52.216;5.616;2023-02-01T00:43:55;9.77;8.65;6.45;3.59;28.89;28.79;28.27;25.47;17.78;0.89
71804;SPS30;59654;52.216;5.616;2023-02-01T00:44:26;8.61;7.63;5.72;3.23;25.99;25.90;25.45;23.01;16.22;0.87
71804;SPS30;59654;52.216;5.616;2023-02-01T00:44:57;8.88;7.91;6.01;3.53;28.36;28.27;27.82;25.40;18.31;0.85
71804;SPS30;59654;52.216;5.616;2023-02-01T00:45:28;8.72;7.78;5.96;3.55;28.56;28.48;28.04;25.71;18.71;0.84
71804;SPS30;59654;52.216;5.616;2023-02-01T00:45:58;8.77;7.83;6.01;3.60;28.94;28.86;28.42;26.09;19.04;0.84
71804;SPS30;59654;52.216;5.616;2023-02-01T00:46:29;9.03;8.06;6.18;3.69;29.67;29.59;29.14;26.72;19.47;0.85
71804;SPS30;59654;52.216;5.616;2023-02-01T00:47:01;9.27;8.27;6.30;3.71;29.85;29.76;29.29;26.77;19.36;0.87
71804;SPS30;59654;52.216;5.616;2023-02-01T00:47:32;9.53;8.45;6.33;3.57;28.77;28.67;28.17;25.47;17.95;0.89
71804;SPS30;59654;52.216;5.616;2023-02-01T00:48:02;8.36;7.40;5.54;3.12;25.13;25.05;24.61;22.24;15.64;0.88
71804;SPS30;59654;52.216;5.616;2023-02-01T00:48:33;9.55;8.47;6.35;3.58;28.84;28.75;28.24;25.54;18.00;0.89
71804;SPS30;59654;52.216;5.616;2023-02-01T00:49:05;9.54;8.45;6.34;3.58;28.82;28.72;28.22;25.52;17.99;0.88
71804;SPS30;59654;52.216;5.616;2023-02-01T00:49:37;9.92;8.82;6.68;3.88;31.20;31.10;30.59;27.86;19.96;0.85
71804;SPS30;59654;52.216;5.616;2023-02-01T00:50:08;9.54;8.47;6.39;3.68;29.58;29.49;28.99;26.34;18.77;0.86
71804;SPS30;59654;52.216;5.616;2023-02-01T00:50:42;9.53;8.44;6.31;3.53;28.42;28.32;27.81;25.09;17.59;0.89
71804;SPS30;59654;52.216;5.616;2023-02-01T00:51:17;9.23;8.14;6.03;3.29;26.48;26.38;25.88;23.19;15.97;0.91
71804;SPS30;59654;52.216;5.616;2023-02-01T00:51:51;8.55;7.55;5.61;3.10;24.94;24.85;24.39;21.92;15.21;0.90
71804;SPS30;59654;52.216;5.616;2023-02-01T00:52:21;9.78;8.66;6.46;3.62;29.11;29.00;28.48;25.69;17.99;0.90
71804;SPS30;59654;52.216;5.616;2023-02-01T00:52:52;10.05;8.90;6.67;3.76;30.29;30.19;29.66;26.82;18.89;0.89
71804;SPS30;59654;52.216;5.616;2023-02-01T00:53:23;10.77;9.53;7.11;3.97;31.95;31.83;31.26;28.18;19.71;0.90
71804;SPS30;59654;52.216;5.616;2023-02-01T00:53:53;11.26;9.95;7.40;4.09;32.90;32.78;32.18;28.93;20.09;0.90
71804;SPS30;59654;52.216;5.616;2023-02-01T00:54:25;9.81;8.66;6.42;3.52;28.31;28.21;27.68;24.83;17.15;0.91
71804;SPS30;59654;52.216;5.616;2023-02-01T00:54:55;8.81;7.79;5.80;3.22;25.89;25.80;25.33;22.80;15.88;0.90
71804;SPS30;59654;52.216;5.616;2023-02-01T00:55:26;9.15;8.10;6.05;3.39;27.27;27.18;26.69;24.08;16.88;0.90
71804;SPS30;59654;52.216;5.616;2023-02-01T00:55:57;10.73;9.49;7.07;3.93;31.63;31.52;30.94;27.86;19.43;0.91
71804;SPS30;59654;52.216;5.616;2023-02-01T00:56:28;10.40;9.20;6.85;3.81;30.69;30.58;30.03;27.04;18.87;0.90
71804;SPS30;59654;52.216;5.616;2023-02-01T00:57:00;9.75;8.64;6.47;3.64;29.32;29.22;28.71;25.94;18.25;0.90
71804;SPS30;59654;52.216;5.616;2023-02-01T00:57:30;9.33;8.28;6.24;3.57;28.69;28.59;28.11;25.50;18.11;0.90
71804;SPS30;59654;52.216;5.616;2023-02-01T00:58:01;10.94;9.71;7.31;4.16;33.51;33.40;32.83;29.76;21.10;0.89
71804;SPS30;59654;52.216;5.616;2023-02-01T00:58:33;10.74;9.51;7.11;3.98;32.02;31.91;31.34;28.28;19.81;0.90
71804;SPS30;59654;52.216;5.616;2023-02-01T00:59:04;10.55;9.34;6.99;3.94;31.69;31.58;31.02;28.03;19.71;0.90
71804;SPS30;59654;52.216;5.616;2023-02-01T00:59:35;9.45;8.38;6.29;3.57;28.71;28.61;28.11;25.45;17.98;0.92
71804;SPS30;59654;52.216;5.616;2023-02-01T01:00:06;8.98;7.97;6.00;3.43;27.59;27.49;27.03;24.51;17.40;0.90
71804;SPS30;59654;52.216;5.616;2023-02-01T01:00:38;9.62;8.57;6.52;3.82;30.72;30.62;30.13;27.51;19.82;0.89
71804;SPS30;59654;52.216;5.616;2023-02-01T01:01:45;7.87;7.01;5.33;3.12;25.09;25.02;24.62;22.46;16.18;0.88
71804;SPS30;59654;52.216;5.616;2023-02-01T01:02:16;8.26;7.36;5.60;3.29;26.44;26.35;25.93;23.68;17.09;0.87
71804;SPS30;59654;52.216;5.616;2023-02-01T01:02:47;7.91;7.05;5.37;3.17;25.52;25.44;25.04;22.90;16.58;0.86
71804;SPS30;59654;52.216;5.616;2023-02-01T01:03:17;9.18;8.20;6.28;3.76;30.20;30.11;29.65;27.20;19.83;0.86
71804;SPS30;59654;52.216;5.616;2023-02-01T01:03:49;8.80;7.85;5.99;3.55;28.52;28.43;27.99;25.61;18.56;0.86
71804;SPS30;59654;52.216;5.616;2023-02-01T01:04:26;9.46;8.43;6.41;3.77;30.31;30.22;29.74;27.17;19.61;0.86
71804;SPS30;59654;52.216;5.616;2023-02-01T01:04:57;8.37;7.44;5.63;3.25;26.18;26.09;25.66;23.34;16.69;0.87
71804;SPS30;59654;52.216;5.616;2023-02-01T01:05:28;8.93;7.93;5.97;3.41;27.46;27.37;26.91;24.41;17.33;0.87
71804;SPS30;59654;52.216;5.616;2023-02-01T01:06:05;8.22;7.28;5.46;3.08;24.82;24.73;24.30;21.97;15.48;0.89
71804;SPS30;59654;52.216;5.616;2023-02-01T01:06:51;9.66;8.52;6.31;3.43;27.66;27.56;27.03;24.21;16.66;0.92
71804;SPS30;59654;52.216;5.616;2023-02-01T01:07:21;9.83;8.65;6.34;3.37;27.15;27.04;26.49;23.56;15.93;0.93
71804;SPS30;59654;52.216;5.616;2023-02-01T01:07:52;10.92;9.62;7.07;3.78;30.46;30.35;29.74;26.50;18.01;0.94
71804;SPS30;59654;52.216;5.616;2023-02-01T01:08:23;11.10;9.76;7.15;3.78;30.48;30.36;29.74;26.42;17.81;0.95
71804;SPS30;59654;52.216;5.616;2023-02-01T01:08:56;10.60;9.31;6.80;3.57;28.81;28.69;28.10;24.91;16.71;0.95
71804;SPS30;59654;52.216;5.616;2023-02-01T01:09:29;10.34;9.12;6.72;3.63;29.23;29.12;28.55;25.50;17.44;0.92
71804;SPS30;59654;52.216;5.616;2023-02-01T01:10:00;9.79;8.67;6.48;3.64;29.28;29.18;28.66;25.88;18.16;0.90
71804;SPS30;59654;52.216;5.616;2023-02-01T01:10:32;9.39;8.32;6.22;3.49;28.13;28.03;27.53;24.86;17.46;0.90
71804;SPS30;59654;52.216;5.616;2023-02-01T01:11:11;8.58;7.58;5.64;3.13;25.18;25.09;24.63;22.16;15.42;0.92
71804;SPS30;59654;52.216;5.616;2023-02-01T01:11:47;10.13;8.93;6.57;3.53;28.47;28.36;27.81;24.81;16.92;0.94
71804;SPS30;59654;52.216;5.616;2023-02-01T01:12:18;10.72;9.44;6.96;3.74;30.15;30.03;29.44;26.28;17.93;0.95
71804;SPS30;59654;52.216;5.616;2023-02-01T01:12:49;10.56;9.29;6.81;3.61;29.09;28.97;28.38;25.23;17.04;0.95
71804;SPS30;59654;52.216;5.616;2023-02-01T01:13:21;10.58;9.30;6.79;3.57;28.79;28.68;28.08;24.90;16.71;0.95
71804;SPS30;59654;52.216;5.616;2023-02-01T01:13:53;10.45;9.20;6.74;3.58;28.83;28.72;28.14;25.02;16.90;0.94
71804;SPS30;59654;52.216;5.616;2023-02-01T01:14:26;11.11;9.78;7.17;3.81;30.67;30.55;29.93;26.62;17.99;0.95
71804;SPS30;59654;52.216;5.616;2023-02-01T01:14:57;10.90;9.59;7.03;3.73;30.04;29.92;29.31;26.06;17.60;0.95
71804;SPS30;59654;52.216;5.616;2023-02-01T01:15:28;10.09;8.89;6.54;3.51;28.25;28.14;27.58;24.60;16.74;0.94
71804;SPS30;59654;52.216;5.616;2023-02-01T01:16:01;10.58;9.34;6.92;3.79;30.53;30.42;29.85;26.77;18.49;0.93
71804;SPS30;59654;52.216;5.616;2023-02-01T01:16:33;12.33;10.86;7.98;4.26;34.33;34.20;33.52;29.86;20.27;0.95
71804;SPS30;59654;52.216;5.616;2023-02-01T01:17:04;11.73;10.32;7.56;4.00;32.26;32.14;31.48;27.98;18.87;0.96
71804;SPS30;59654;52.216;5.616;2023-02-01T01:17:35;9.34;8.24;6.08;3.29;26.47;26.37;25.85;23.11;15.82;0.94
71804;SPS30;59654;52.216;5.616;2023-02-01T01:18:06;9.85;8.70;6.46;3.55;28.60;28.50;27.97;25.11;17.39;0.92
71804;SPS30;59654;52.216;5.616;2023-02-01T01:18:38;9.07;8.03;5.99;3.34;26.90;26.81;26.32;23.73;16.59;0.91
71804;SPS30;59654;52.216;5.616;2023-02-01T01:19:09;10.22;9.02;6.68;3.65;29.41;29.30;28.74;25.77;17.78;0.93
71804;SPS30;59654;52.216;5.616;2023-02-01T01:19:40;10.31;9.08;6.70;3.62;29.12;29.01;28.45;25.41;17.38;0.94
71804;SPS30;59654;52.216;5.616;2023-02-01T01:20:11;10.35;9.11;6.70;3.58;28.83;28.72;28.14;25.07;17.02;0.95
71804;SPS30;59654;52.216;5.616;2023-02-01T01:20:42;9.99;8.81;6.49;3.51;28.24;28.14;27.59;24.65;16.86;0.95
71804;SPS30;59654;52.216;5.616;2023-02-01T01:21:13;9.31;8.21;6.07;3.29;26.50;26.40;25.89;23.16;15.89;0.96
71804;SPS30;59654;52.216;5.616;2023-02-01T01:21:46;10.70;9.42;6.91;3.69;29.70;29.58;28.99;25.81;17.49;0.97
71804;SPS30;59654;52.216;5.616;2023-02-01T01:22:17;10.99;9.67;7.08;3.74;30.17;30.05;29.43;26.15;17.62;0.98
71804;SPS30;59654;52.216;5.616;2023-02-01T01:22:48;10.31;9.06;6.61;3.47;27.93;27.82;27.24;24.14;16.16;0.97
71804;SPS30;59654;52.216;5.616;2023-02-01T01:23:19;10.06;8.85;6.47;3.41;27.47;27.36;26.80;23.78;15.98;0.97
71804;SPS30;59654;52.216;5.616;2023-02-01T01:23:49;9.79;8.62;6.34;3.39;27.30;27.19;26.65;23.74;16.13;0.96
71804;SPS30;59654;52.216;5.616;2023-02-01T01:24:21;8.80;7.77;5.76;3.16;25.46;25.37;24.89;22.34;15.45;0.95
71804;SPS30;59654;52.216;5.616;2023-02-01T01:24:51;9.86;8.70;6.42;3.48;28.00;27.89;27.35;24.45;16.76;0.96
71804;SPS30;59654;52.216;5.616;2023-02-01T01:25:22;10.28;9.08;6.73;3.68;29.67;29.57;29.01;26.02;17.97;0.94
71804;SPS30;59654;52.216;5.616;2023-02-01T01:25:53;10.08;8.91;6.62;3.64;29.32;29.21;28.67;25.75;17.85;0.93
71804;SPS30;59654;52.216;5.616;2023-02-01T01:26:25;11.23;9.91;7.32;3.98;32.03;31.92;31.30;28.01;19.24;0.94
71804;SPS30;59654;52.216;5.616;2023-02-01T01:26:58;10.71;9.45;7.00;3.82;30.74;30.62;30.04;26.92;18.55;0.92
71804;SPS30;59654;52.216;5.616;2023-02-01T01:27:29;10.20;8.98;6.62;3.55;28.64;28.53;27.97;24.95;17.01;0.93
71804;SPS30;59654;52.216;5.616;2023-02-01T01:28:00;11.21;9.87;7.27;3.91;31.46;31.34;30.72;27.41;18.69;0.93
71804;SPS30;59654;52.216;5.616;2023-02-01T01:28:31;10.42;9.18;6.74;3.60;29.00;28.89;28.31;25.22;17.12;0.93
71804;SPS30;59654;52.216;5.616;2023-02-01T01:29:02;11.06;9.74;7.14;3.80;30.60;30.48;29.87;26.57;17.98;0.93
71804;SPS30;59654;52.216;5.616;2023-02-01T01:29:33;10.10;8.91;6.58;3.57;28.77;28.66;28.11;25.15;17.26;0.91
71804;SPS30;59654;52.216;5.616;2023-02-01T01:30:04;9.59;8.48;6.29;3.46;27.83;27.73;27.21;24.43;16.91;0.90
71804;SPS30;59654;52.216;5.616;2023-02-01T01:30:36;10.06;8.88;6.59;3.62;29.17;29.07;28.52;25.61;17.73;0.91
71804;SPS30;59654;52.216;5.616;2023-02-01T01:31:10;9.45;8.34;6.16;3.34;26.86;26.76;26.25;23.47;16.10;0.91
71804;SPS30;59654;52.216;5.616;2023-02-01T01:31:43;9.85;8.68;6.40;3.45;27.80;27.70;27.16;24.26;16.58;0.93
71804;SPS30;59654;52.216;5.616;2023-02-01T01:32:14;11.03;9.71;7.12;3.79;30.54;30.43;29.81;26.53;17.96;0.94
71804;SPS30;59654;52.216;5.616;2023-02-01T01:32:45;10.83;9.53;7.00;3.74;30.12;30.01;29.40;26.19;17.77;0.95
71804;SPS30;59654;52.216;5.616;2023-02-01T01:33:16;11.18;9.85;7.25;3.89;31.34;31.22;30.61;27.30;18.60;0.93
71804;SPS30;59654;52.216;5.616;2023-02-01T01:33:51;10.84;9.56;7.05;3.82;30.73;30.62;30.03;26.84;18.38;0.93
71804;SPS30;59654;52.216;5.616;2023-02-01T01:34:25;10.18;8.99;6.66;3.64;29.30;29.20;28.64;25.68;17.71;0.91
71804;SPS30;59654;52.216;5.616;2023-02-01T01:34:56;9.99;8.83;6.55;3.61;29.03;28.93;28.39;25.50;17.67;0.91
71804;SPS30;59654;52.216;5.616;2023-02-01T01:35:28;9.62;8.50;6.32;3.48;28.01;27.91;27.39;24.61;17.06;0.92
71804;SPS30;59654;52.216;5.616;2023-02-01T01:36:01;10.17;9.00;6.72;3.75;30.22;30.12;29.58;26.67;18.67;0.89
71804;SPS30;59654;52.216;5.616;2023-02-01T01:36:32;10.04;8.89;6.65;3.74;30.11;30.00;29.47;26.62;18.71;0.88
71804;SPS30;59654;52.216;5.616;2023-02-01T01:37:02;9.24;8.17;6.06;3.34;26.87;26.78;26.28;23.60;16.36;0.90
71804;SPS30;59654;52.216;5.616;2023-02-01T01:37:33;9.72;8.56;6.30;3.38;27.25;27.15;26.61;23.74;16.18;0.92
71804;SPS30;59654;52.216;5.616;2023-02-01T01:38:05;10.88;9.58;7.03;3.75;30.24;30.13;29.52;26.29;17.84;0.92
71804;SPS30;59654;52.216;5.616;2023-02-01T01:38:36;9.64;8.47;6.20;3.28;26.41;26.31;25.77;22.89;15.42;0.93
71804;SPS30;59654;52.216;5.616;2023-02-01T01:39:09;11.20;9.82;7.14;3.70;29.85;29.73;29.09;25.70;17.06;0.96
71804;SPS30;59654;52.216;5.616;2023-02-01T01:39:40;11.62;10.22;7.49;3.97;31.97;31.84;31.19;27.72;18.70;0.93
71804;SPS30;59654;52.216;5.616;2023-02-01T01:40:11;9.98;8.80;6.48;3.48;28.05;27.95;27.40;24.45;16.67;0.92
71804;SPS30;59654;52.216;5.616;2023-02-01T01:40:45;9.76;8.59;6.31;3.36;27.10;26.99;26.45;23.55;15.96;0.93
71804;SPS30;59654;52.216;5.616;2023-02-01T01:41:23;10.91;9.59;7.01;3.68;29.69;29.58;28.96;25.69;17.24;0.94
71804;SPS30;59654;52.216;5.616;2023-02-01T01:42:04;10.04;8.81;6.41;3.33;26.87;26.76;26.19;23.15;15.40;0.94
71804;SPS30;59654;52.216;5.616;2023-02-01T01:42:41;11.25;9.87;7.16;3.69;29.73;29.61;28.96;25.53;16.86;0.95
71804;SPS30;59654;52.216;5.616;2023-02-01T01:43:16;11.40;9.99;7.25;3.72;30.01;29.89;29.24;25.75;16.98;0.94
71804;SPS30;59654;52.216;5.616;2023-02-01T01:43:53;11.43;10.04;7.31;3.81;30.69;30.56;29.91;26.45;17.62;0.94
71804;SPS30;59654;52.216;5.616;2023-02-01T01:45:34;10.93;9.60;7.00;3.65;29.42;29.30;28.69;25.38;16.93;0.94
71804;SPS30;59654;52.216;5.616;2023-02-01T01:46:05;11.26;9.88;7.18;3.71;29.95;29.83;29.19;25.77;17.09;0.95
71804;SPS30;59654;52.216;5.616;2023-02-01T01:46:37;11.36;9.94;7.16;3.61;29.10;28.98;28.32;24.80;16.09;0.98
71804;SPS30;59654;52.216;5.616;2023-02-01T01:47:10;9.94;8.69;6.26;3.15;25.38;25.27;24.69;21.61;14.00;0.97
71804;SPS30;59654;52.216;5.616;2023-02-01T01:47:43;9.44;8.25;5.95;2.99;24.12;24.02;23.47;20.54;13.31;0.98
71804;SPS30;59654;52.216;5.616;2023-02-01T01:49:10;11.64;10.20;7.38;3.77;30.44;30.32;29.65;26.08;17.13;0.95
71804;SPS30;59654;52.216;5.616;2023-02-01T01:49:53;10.12;8.88;6.47;3.38;27.21;27.10;26.53;23.47;15.66;0.93
71804;SPS30;59654;52.216;5.616;2023-02-01T01:50:28;10.41;9.16;6.73;3.59;28.90;28.79;28.21;25.11;17.03;0.93
71804;SPS30;59654;52.216;5.616;2023-02-01T01:51:04;11.28;9.92;7.27;3.85;31.00;30.88;30.25;26.88;18.13;0.94
71804;SPS30;59654;52.216;5.616;2023-02-01T01:51:44;10.37;9.15;6.77;3.69;29.69;29.58;29.02;25.99;17.88;0.92
71804;SPS30;59654;52.216;5.616;2023-02-01T01:52:22;10.88;9.60;7.11;3.88;31.22;31.11;30.52;27.34;18.84;0.91
71804;SPS30;59654;52.216;5.616;2023-02-01T01:52:55;10.56;9.32;6.90;3.76;30.26;30.15;29.57;26.49;18.23;0.90
71804;SPS30;59654;52.216;5.616;2023-02-01T01:53:34;9.33;8.24;6.12;3.37;27.10;27.00;26.50;23.80;16.49;0.90
71804;SPS30;59654;52.216;5.616;2023-02-01T01:54:15;9.46;8.35;6.18;3.37;27.16;27.06;26.54;23.78;16.39;0.91
71804;SPS30;59654;52.216;5.616;2023-02-01T01:54:53;9.63;8.50;6.30;3.44;27.72;27.62;27.10;24.29;16.76;0.90
71804;SPS30;59654;52.216;5.616;2023-02-01T01:55:25;9.13;8.06;5.98;3.29;26.47;26.38;25.88;23.23;16.08;0.90
71804;SPS30;59654;52.216;5.616;2023-02-01T01:56:03;10.69;9.47;7.07;3.96;31.87;31.76;31.19;28.14;19.72;0.89
71804;SPS30;59654;52.216;5.616;2023-02-01T01:56:34;9.81;8.70;6.53;3.70;29.74;29.64;29.13;26.36;18.60;0.88
71804;SPS30;59654;52.216;5.616;2023-02-01T01:57:08;8.84;7.84;5.89;3.35;26.93;26.84;26.38;23.89;16.90;0.88
71804;SPS30;59654;52.216;5.616;2023-02-01T01:58:08;8.49;7.52;5.63;3.17;25.54;25.45;25.00;22.60;15.90;0.89
71804;SPS30;59654;52.216;5.616;2023-02-01T01:58:43;8.89;7.86;5.84;3.22;25.95;25.85;25.37;22.80;15.83;0.90
71804;SPS30;59654;52.216;5.616;2023-02-01T01:59:14;9.44;8.34;6.20;3.43;27.62;27.52;27.02;24.30;16.89;0.90
71804;SPS30;59654;52.216;5.616;2023-02-01T01:59:50;10.22;9.01;6.65;3.59;28.91;28.81;28.24;25.24;17.27;0.92
71804;SPS30;59654;52.216;5.616;2023-02-01T02:00:44;10.38;9.18;6.83;3.77;30.40;30.29;29.73;26.73;18.58;0.89
71804;SPS30;59654;52.216;5.616;2023-02-01T02:01:16;9.93;8.78;6.54;3.64;29.29;29.19;28.66;25.81;18.01;0.89
71804;SPS30;59654;52.216;5.616;2023-02-01T02:01:47;9.17;8.11;6.03;3.33;26.84;26.74;26.25;23.60;16.40;0.90
71804;SPS30;59654;52.216;5.616;2023-02-01T02:02:18;9.79;8.65;6.42;3.54;28.48;28.38;27.85;25.02;17.35;0.89
71804;SPS30;59654;52.216;5.616;2023-02-01T02:02:52;10.30;9.11;6.78;3.76;30.24;30.13;29.57;26.61;18.52;0.89
71804;SPS30;59654;52.216;5.616;2023-02-01T02:03:35;10.33;9.13;6.78;3.73;30.06;29.96;29.40;26.41;18.31;0.89